createdAt,value
2018-07-01T00:01:47.240Z,46.10
2018-07-01T00:04:14.180Z,46.10
2018-07-01T00:06:41.065Z,46.10
2018-07-01T00:09:08.013Z,46.10
2018-07-01T00:11:34.934Z,46.20
2018-07-01T00:14:02.230Z,46.30
2018-07-01T00:16:29.103Z,46.30
2018-07-01T00:18:56.144Z,46.30
2018-07-01T00:21:23.051Z,46.20
2018-07-01T00:23:50.036Z,46.10
2018-07-01T00:26:16.959Z,46.10
2018-07-01T00:28:44.016Z,46.00
2018-07-01T00:31:10.944Z,46.50
2018-07-01T00:33:37.886Z,45.90
2018-07-01T00:36:04.800Z,45.90
2018-07-01T00:38:31.763Z,45.90
2018-07-01T00:40:58.668Z,46.00
2018-07-01T00:43:25.699Z,46.00
2018-07-01T00:45:52.607Z,45.90
2018-07-01T00:48:19.517Z,46.00
2018-07-01T00:50:46.439Z,45.90
2018-07-01T00:53:13.376Z,46.40
2018-07-01T00:55:40.336Z,45.90
2018-07-01T00:58:07.402Z,45.90
2018-07-01T01:00:34.580Z,45.80
2018-07-01T01:03:02.899Z,45.80
2018-07-01T01:05:30.168Z,45.70
2018-07-01T01:10:25.295Z,45.80
2018-07-01T01:12:52.348Z,45.90
2018-07-01T01:15:19.232Z,45.90
2018-07-01T01:17:46.161Z,45.80
2018-07-01T01:20:13.040Z,45.90
2018-07-01T01:22:39.972Z,45.80
2018-07-01T01:25:06.855Z,45.80
2018-07-01T01:27:33.788Z,45.90
2018-07-01T01:30:00.700Z,45.80
2018-07-01T01:32:27.679Z,45.80
2018-07-01T01:34:54.778Z,45.70
2018-07-01T01:37:21.797Z,45.70
2018-07-01T01:39:48.744Z,45.70
2018-07-01T01:44:50.967Z,45.70
2018-07-01T01:47:53.194Z,45.60
2018-07-01T01:50:27.420Z,45.60
2018-07-01T01:55:40.492Z,45.70
2018-07-01T01:58:31.552Z,45.70
2018-07-01T02:03:41.819Z,45.80
2018-07-01T02:06:13.859Z,45.70
2018-07-01T02:08:44.893Z,45.70
2018-07-01T02:11:11.875Z,45.70
2018-07-01T02:16:12.288Z,45.80
2018-07-01T02:18:39.284Z,45.80
2018-07-01T02:21:06.262Z,45.80
2018-07-01T02:23:38.067Z,45.80
2018-07-01T02:28:31.947Z,46.30
2018-07-01T02:30:58.872Z,45.70
2018-07-01T02:33:25.773Z,45.70
2018-07-01T02:35:52.672Z,45.70
2018-07-01T02:38:19.580Z,45.60
2018-07-01T02:40:46.492Z,45.80
2018-07-01T02:43:13.412Z,45.60
2018-07-01T02:45:40.338Z,45.60
2018-07-01T02:48:07.260Z,45.10
2018-07-01T02:50:34.198Z,45.50
2018-07-01T02:53:01.102Z,45.40
2018-07-01T02:55:28.121Z,45.40
2018-07-01T02:57:55.052Z,45.50
2018-07-01T03:00:22.267Z,45.50
2018-07-01T03:02:49.209Z,45.50
2018-07-01T03:05:16.413Z,45.50
2018-07-01T03:07:43.333Z,45.50
2018-07-01T03:10:10.268Z,45.50
2018-07-01T03:12:37.199Z,45.50
2018-07-01T03:15:04.153Z,45.50
2018-07-01T03:17:31.096Z,45.50
2018-07-01T03:19:58.040Z,45.50
2018-07-01T03:22:24.976Z,45.60
2018-07-01T03:24:52.055Z,45.50
2018-07-01T03:27:19.130Z,45.50
2018-07-01T03:29:46.101Z,45.50
2018-07-01T03:32:13.185Z,45.50
2018-07-01T03:34:40.104Z,45.50
2018-07-01T03:37:07.239Z,45.50
2018-07-01T03:39:34.190Z,45.50
2018-07-01T03:42:01.080Z,45.50
2018-07-01T03:44:27.962Z,45.40
2018-07-01T03:46:54.888Z,45.50
2018-07-01T03:49:21.823Z,45.40
2018-07-01T03:51:48.876Z,45.40
2018-07-01T03:54:15.771Z,45.30
2018-07-01T03:56:42.732Z,45.40
2018-07-01T03:59:09.640Z,45.30
2018-07-01T04:01:36.628Z,45.30
2018-07-01T04:04:03.544Z,45.20
2018-07-01T04:06:30.514Z,45.00
2018-07-01T04:08:57.392Z,45.00
2018-07-01T04:11:25.397Z,44.90
2018-07-01T04:13:52.287Z,45.00
2018-07-01T04:16:19.227Z,44.90
2018-07-01T04:18:46.172Z,44.90
2018-07-01T04:21:13.104Z,45.00
2018-07-01T04:23:40.041Z,44.80
2018-07-01T04:26:06.982Z,44.80
2018-07-01T04:28:33.971Z,44.90
2018-07-01T04:31:00.969Z,45.00
2018-07-01T04:35:54.966Z,45.00
2018-07-01T04:38:22.160Z,45.00
2018-07-01T04:40:49.038Z,45.00
2018-07-01T04:43:15.984Z,45.20
2018-07-01T04:45:43.578Z,45.00
2018-07-01T04:48:10.512Z,45.10
2018-07-01T04:50:37.532Z,45.00
2018-07-01T04:53:04.496Z,45.20
2018-07-01T04:55:31.439Z,45.30
2018-07-01T04:57:58.387Z,44.70
2018-07-01T05:00:25.348Z,43.80
2018-07-01T05:02:52.915Z,43.00
2018-07-01T05:05:19.814Z,42.60
2018-07-01T05:07:47.186Z,42.30
2018-07-01T05:10:14.079Z,42.10
2018-07-01T05:15:08.272Z,42.40
2018-07-01T05:17:35.176Z,42.30
2018-07-01T05:20:02.102Z,42.10
2018-07-01T05:22:29.008Z,42.60
2018-07-01T05:24:56.421Z,42.80
2018-07-01T05:27:23.667Z,42.10
2018-07-01T05:29:50.590Z,41.80
2018-07-01T05:32:18.395Z,41.30
2018-07-01T05:34:45.309Z,40.70
2018-07-01T05:37:12.215Z,40.20
2018-07-01T05:39:39.304Z,39.90
2018-07-01T05:42:06.288Z,39.40
2018-07-01T05:44:33.220Z,39.00
2018-07-01T05:47:00.258Z,38.80
2018-07-01T05:49:35.149Z,38.90
2018-07-01T05:52:04.567Z,38.80
2018-07-01T05:54:32.646Z,38.40
2018-07-01T05:57:04.843Z,38.10
2018-07-01T05:59:32.205Z,37.80
2018-07-01T06:01:59.507Z,37.90
2018-07-01T06:04:28.196Z,37.60
2018-07-01T06:06:58.414Z,37.60
2018-07-01T06:09:25.400Z,37.50
2018-07-01T06:11:52.507Z,37.50
2018-07-01T06:14:19.440Z,37.50
2018-07-01T06:16:46.380Z,37.60
2018-07-01T06:19:13.333Z,37.30
2018-07-01T06:21:40.960Z,37.40
2018-07-01T06:24:07.901Z,37.10
2018-07-01T06:26:34.818Z,37.20
2018-07-01T06:29:01.755Z,37.60
2018-07-01T06:31:28.795Z,37.10
2018-07-01T06:33:55.746Z,37.10
2018-07-01T06:36:22.903Z,37.00
2018-07-01T06:38:50.145Z,37.00
2018-07-01T06:41:17.036Z,37.00
2018-07-01T06:43:44.007Z,37.20
2018-07-01T06:46:10.907Z,37.00
2018-07-01T06:48:37.839Z,37.10
2018-07-01T06:51:04.735Z,37.60
2018-07-01T06:53:31.668Z,37.20
2018-07-01T06:55:58.573Z,37.20
2018-07-01T06:58:25.499Z,37.20
2018-07-01T07:00:52.415Z,37.00
2018-07-01T07:03:19.344Z,37.00
2018-07-01T07:05:47.097Z,37.40
2018-07-01T07:08:14.050Z,37.50
2018-07-01T07:10:40.948Z,37.50
2018-07-01T07:13:07.948Z,37.60
2018-07-01T07:15:36.852Z,37.40
2018-07-01T07:20:30.884Z,37.10
2018-07-01T07:22:57.779Z,36.90
2018-07-01T07:25:24.719Z,36.90
2018-07-01T07:27:51.896Z,36.70
2018-07-01T07:30:18.844Z,36.80
2018-07-01T07:32:45.760Z,36.70
2018-07-01T07:35:12.672Z,36.60
2018-07-01T07:37:39.557Z,36.50
2018-07-01T07:40:06.539Z,36.60
2018-07-01T07:42:33.477Z,36.70
2018-07-01T07:45:00.491Z,36.80
2018-07-01T07:47:27.362Z,36.40
2018-07-01T07:49:54.299Z,36.30
2018-07-01T07:52:21.290Z,36.20
2018-07-01T07:54:48.168Z,36.40
2018-07-01T07:57:15.091Z,35.70
2018-07-01T07:59:42.124Z,35.80
2018-07-01T08:04:35.906Z,34.70
2018-07-01T08:07:02.913Z,34.70
2018-07-01T08:09:29.816Z,34.40
2018-07-01T08:11:56.743Z,34.30
2018-07-01T08:14:23.648Z,34.00
2018-07-01T08:16:50.568Z,33.50
2018-07-01T08:19:17.448Z,33.30
2018-07-01T08:21:44.373Z,32.80
2018-07-01T08:24:11.264Z,32.60
2018-07-01T08:26:38.243Z,32.50
2018-07-01T08:29:05.163Z,32.40
2018-07-01T08:31:32.112Z,32.30
2018-07-01T08:33:59.017Z,32.20
2018-07-01T08:36:25.964Z,32.00
2018-07-01T08:38:52.904Z,31.90
2018-07-01T08:41:19.832Z,31.80
2018-07-01T08:43:47.287Z,31.70
2018-07-01T08:46:14.285Z,31.70
2018-07-01T08:48:41.144Z,31.70
2018-07-01T08:51:08.122Z,31.70
2018-07-01T08:53:35.055Z,31.40
2018-07-01T08:56:01.987Z,31.50
2018-07-01T08:58:28.916Z,31.60
2018-07-01T09:00:55.813Z,31.70
2018-07-01T09:03:22.754Z,31.70
2018-07-01T09:05:49.867Z,31.80
2018-07-01T09:08:16.812Z,31.40
2018-07-01T09:10:43.744Z,31.40
2018-07-01T09:13:10.687Z,31.50
2018-07-01T09:15:37.616Z,31.20
2018-07-01T09:18:04.548Z,30.90
2018-07-01T09:20:31.467Z,30.60
2018-07-01T09:22:58.392Z,30.60
2018-07-01T09:25:25.455Z,30.80
2018-07-01T09:27:52.382Z,30.50
2018-07-01T09:30:19.309Z,30.70
2018-07-01T09:32:46.275Z,30.40
2018-07-01T09:35:13.164Z,30.50
2018-07-01T09:37:40.123Z,30.30
2018-07-01T09:40:07.157Z,30.60
2018-07-01T09:42:34.359Z,30.60
2018-07-01T09:45:01.291Z,30.30
2018-07-01T09:47:29.054Z,30.50
2018-07-01T09:49:56.070Z,30.50
2018-07-01T09:52:23.020Z,30.30
2018-07-01T09:54:57.159Z,30.50
2018-07-01T09:57:24.108Z,30.50
2018-07-01T09:59:51.371Z,30.50
2018-07-01T10:02:18.352Z,30.90
2018-07-01T10:04:45.381Z,30.80
2018-07-01T10:07:13.282Z,31.00
2018-07-01T10:09:40.262Z,31.30
2018-07-01T10:12:08.294Z,31.20
2018-07-01T10:14:35.313Z,31.30
2018-07-01T10:17:03.479Z,31.20
2018-07-01T10:19:30.423Z,30.90
2018-07-01T10:21:57.436Z,31.30
2018-07-01T10:26:53.274Z,30.70
2018-07-01T10:29:20.456Z,31.00
2018-07-01T10:31:47.367Z,31.40
2018-07-01T10:34:15.126Z,31.20
2018-07-01T10:36:42.480Z,31.40
2018-07-01T10:39:10.540Z,31.30
2018-07-01T10:41:37.787Z,31.10
2018-07-01T10:44:04.750Z,31.40
2018-07-01T10:46:31.817Z,31.10
2018-07-01T10:49:00.143Z,31.40
2018-07-01T10:51:27.106Z,31.80
2018-07-01T10:53:55.748Z,31.80
2018-07-01T10:56:23.318Z,31.70
2018-07-01T10:58:50.305Z,31.60
2018-07-01T11:01:18.654Z,31.20
2018-07-01T11:03:46.156Z,31.40
2018-07-01T11:06:13.311Z,31.20
2018-07-01T11:08:40.048Z,31.20
2018-07-01T11:11:07.003Z,31.00
2018-07-01T11:13:33.939Z,30.80
2018-07-01T11:16:01.166Z,30.60
2018-07-01T11:18:28.488Z,30.40
2018-07-01T11:20:55.428Z,30.40
2018-07-01T11:23:22.311Z,30.40
2018-07-01T11:25:49.285Z,31.30
2018-07-01T11:28:16.918Z,30.80
2018-07-01T11:30:43.986Z,30.60
2018-07-01T11:33:10.881Z,30.80
2018-07-01T11:38:04.858Z,30.80
2018-07-01T11:42:58.658Z,30.80
2018-07-01T11:45:25.942Z,30.90
2018-07-01T11:47:52.984Z,30.80
2018-07-01T11:50:19.940Z,31.00
2018-07-01T11:52:46.928Z,31.10
2018-07-01T11:55:13.846Z,31.10
2018-07-01T11:57:40.884Z,31.20
2018-07-01T12:00:08.206Z,31.70
2018-07-01T12:02:35.596Z,31.10
2018-07-01T12:05:16.202Z,31.00
2018-07-01T12:09:56.415Z,31.20
2018-07-01T12:12:23.790Z,31.50
2018-07-01T12:14:50.716Z,31.40
2018-07-01T12:17:17.676Z,31.30
2018-07-01T12:19:44.646Z,31.00
2018-07-01T12:22:11.560Z,31.00
2018-07-01T12:24:38.489Z,30.90
2018-07-01T12:27:05.416Z,30.80
2018-07-01T12:29:32.372Z,30.80
2018-07-01T12:32:00.362Z,31.30
2018-07-01T12:34:27.287Z,30.60
2018-07-01T12:36:54.184Z,30.30
2018-07-01T12:39:21.096Z,30.20
2018-07-01T12:41:47.980Z,30.40
2018-07-01T12:44:14.945Z,30.60
2018-07-01T12:46:41.849Z,30.50
2018-07-01T12:49:08.771Z,30.50
2018-07-01T12:51:35.872Z,30.30
2018-07-01T12:54:02.979Z,30.70
2018-07-01T12:56:30.138Z,30.30
2018-07-01T12:58:57.099Z,30.60
2018-07-01T13:01:23.983Z,30.50
2018-07-01T13:03:50.936Z,30.50
2018-07-01T13:06:17.837Z,30.90
2018-07-01T13:08:44.753Z,31.30
2018-07-01T13:11:11.636Z,31.60
2018-07-01T13:13:38.783Z,31.20
2018-07-01T13:16:05.699Z,31.00
2018-07-01T13:18:34.957Z,31.20
2018-07-01T13:21:01.857Z,31.30
2018-07-01T13:23:28.799Z,31.40
2018-07-01T13:25:55.763Z,31.60
2018-07-01T13:28:22.691Z,31.40
2018-07-01T13:30:49.632Z,31.50
2018-07-01T13:33:16.580Z,31.40
2018-07-01T13:35:43.487Z,31.60
2018-07-01T13:38:10.435Z,31.50
2018-07-01T13:40:37.341Z,31.30
2018-07-01T13:43:04.252Z,31.00
2018-07-01T13:45:31.200Z,31.30
2018-07-01T13:47:58.106Z,31.70
2018-07-01T13:50:25.012Z,31.10
2018-07-01T13:52:51.960Z,31.00
2018-07-01T13:55:18.892Z,31.20
2018-07-01T13:57:45.856Z,31.20
2018-07-01T14:00:12.776Z,31.00
2018-07-01T14:05:06.920Z,31.60
2018-07-01T14:07:33.796Z,31.50
2018-07-01T14:10:00.859Z,31.30
2018-07-01T14:12:27.747Z,31.20
2018-07-01T14:14:54.731Z,31.40
2018-07-01T14:17:21.707Z,31.60
2018-07-01T14:19:48.610Z,31.20
2018-07-01T14:22:15.518Z,31.30
2018-07-01T14:24:42.432Z,31.20
2018-07-01T14:27:09.435Z,31.30
2018-07-01T14:29:36.284Z,31.40
2018-07-01T14:32:03.228Z,31.30
2018-07-01T14:34:30.157Z,31.60
2018-07-01T14:36:57.424Z,31.10
2018-07-01T14:39:24.336Z,30.90
2018-07-01T14:41:51.283Z,31.30
2018-07-01T14:44:18.183Z,31.30
2018-07-01T14:46:45.122Z,31.70
2018-07-01T14:49:12.042Z,31.40
2018-07-01T14:51:39.016Z,31.90
2018-07-01T14:54:05.953Z,31.90
2018-07-01T14:56:32.945Z,31.90
2018-07-01T14:58:59.816Z,32.00
2018-07-01T15:01:26.745Z,31.70
2018-07-01T15:03:53.637Z,31.60
2018-07-01T15:06:20.585Z,31.60
2018-07-01T15:11:14.635Z,31.60
2018-07-01T15:13:41.566Z,31.50
2018-07-01T15:16:08.459Z,31.60
2018-07-01T15:18:35.392Z,31.50
2018-07-01T15:21:02.324Z,31.60
2018-07-01T15:23:29.244Z,31.30
2018-07-01T15:25:56.131Z,31.30
2018-07-01T15:28:23.404Z,31.30
2018-07-01T15:30:50.317Z,31.50
2018-07-01T15:33:17.391Z,31.50
2018-07-01T15:38:11.180Z,31.20
2018-07-01T15:40:38.091Z,31.50
2018-07-01T15:43:05.004Z,31.10
2018-07-01T15:45:31.917Z,31.20
2018-07-01T15:47:58.848Z,31.30
2018-07-01T15:50:25.734Z,31.30
2018-07-01T15:52:52.684Z,31.70
2018-07-01T15:55:20.274Z,31.90
2018-07-01T15:57:47.188Z,31.80
2018-07-01T16:00:14.089Z,32.20
2018-07-01T16:02:41.069Z,32.20
2018-07-01T16:05:08.001Z,32.10
2018-07-01T16:07:34.911Z,32.30
2018-07-01T16:10:01.812Z,31.90
2018-07-01T16:12:28.724Z,31.70
2018-07-01T16:14:55.628Z,31.70
2018-07-01T16:17:22.519Z,32.20
2018-07-01T16:19:49.412Z,31.20
2018-07-01T16:22:16.708Z,31.10
2018-07-01T16:24:49.484Z,31.60
2018-07-01T16:27:20.996Z,31.70
2018-07-01T16:29:48.609Z,31.80
2018-07-01T16:32:15.504Z,31.80
2018-07-01T16:34:42.403Z,31.60
2018-07-01T16:37:09.364Z,31.40
2018-07-01T16:39:36.451Z,31.60
2018-07-01T16:42:03.455Z,31.60
2018-07-01T16:44:30.380Z,31.90
2018-07-01T16:46:58.344Z,32.10
2018-07-01T16:49:25.311Z,31.90
2018-07-01T16:51:52.523Z,31.80
2018-07-01T16:54:19.804Z,31.80
2018-07-01T16:56:46.740Z,31.90
2018-07-01T16:59:14.327Z,31.90
2018-07-01T17:01:41.311Z,31.90
2018-07-01T17:04:08.283Z,32.30
2018-07-01T17:06:36.191Z,32.10
2018-07-01T17:09:03.772Z,31.80
2018-07-01T17:11:30.712Z,32.00
2018-07-01T17:13:57.663Z,31.90
2018-07-01T17:16:24.579Z,31.90
2018-07-01T17:18:51.511Z,32.30
2018-07-01T17:21:19.068Z,32.00
2018-07-01T17:23:46.331Z,32.50
2018-07-01T17:26:13.268Z,32.40
2018-07-01T17:28:40.147Z,32.10
2018-07-01T17:31:13.387Z,32.30
2018-07-01T17:33:40.321Z,32.00
2018-07-01T17:36:07.656Z,31.90
2018-07-01T17:38:35.300Z,32.20
2018-07-01T17:41:02.300Z,32.30
2018-07-01T17:43:29.280Z,32.20
2018-07-01T17:45:56.186Z,32.40
2018-07-01T17:48:23.310Z,32.10
2018-07-01T17:50:50.284Z,32.00
2018-07-01T17:53:22.961Z,32.10
2018-07-01T17:55:49.886Z,32.30
2018-07-01T17:58:16.795Z,32.40
2018-07-01T18:00:43.717Z,32.50
2018-07-01T18:03:11.061Z,32.70
2018-07-01T18:05:37.994Z,32.30
2018-07-01T18:08:04.948Z,32.60
2018-07-01T18:10:32.612Z,32.30
2018-07-01T18:12:59.539Z,32.20
2018-07-01T18:15:26.824Z,32.00
2018-07-01T18:17:53.767Z,32.30
2018-07-01T18:20:21.518Z,32.50
2018-07-01T18:23:18.236Z,32.30
2018-07-01T18:25:15.711Z,32.40
2018-07-01T18:27:46.827Z,32.10
2018-07-01T18:30:10.827Z,32.10
2018-07-01T18:32:39.060Z,32.10
2018-07-01T18:35:06.063Z,32.40
2018-07-01T18:37:33.578Z,32.40
2018-07-01T18:40:00.552Z,32.10
2018-07-01T18:42:27.452Z,32.30
2018-07-01T18:44:54.386Z,32.40
2018-07-01T18:47:21.339Z,32.30
2018-07-01T18:49:48.255Z,32.10
2018-07-01T18:52:15.184Z,32.10
2018-07-01T18:54:42.229Z,32.20
2018-07-01T18:57:09.168Z,32.00
2018-07-01T18:59:36.158Z,32.50
2018-07-01T19:02:03.403Z,32.00
2018-07-01T19:04:30.336Z,32.40
2018-07-01T19:06:57.250Z,32.10
2018-07-01T19:09:24.184Z,32.30
2018-07-01T19:11:51.171Z,32.60
2018-07-01T19:14:18.132Z,32.40
2018-07-01T19:16:46.456Z,33.00
2018-07-01T19:19:14.449Z,32.30
2018-07-01T19:21:41.647Z,32.50
2018-07-01T19:24:08.578Z,31.90
2018-07-01T19:26:35.528Z,32.20
2018-07-01T19:29:02.520Z,32.40
2018-07-01T19:31:29.731Z,32.10
2018-07-01T19:33:56.693Z,32.10
2018-07-01T19:36:23.629Z,31.90
2018-07-01T19:41:17.407Z,32.10
2018-07-01T19:43:44.354Z,31.90
2018-07-01T19:46:11.932Z,31.90
2018-07-01T19:48:38.872Z,32.00
2018-07-01T19:51:06.028Z,31.90
2018-07-01T19:53:33.054Z,32.00
2018-07-01T19:56:00.000Z,31.80
2018-07-01T19:58:27.227Z,31.80
2018-07-01T20:00:54.176Z,31.90
2018-07-01T20:03:21.101Z,31.70
2018-07-01T20:05:48.040Z,31.70
2018-07-01T20:08:15.010Z,31.80
2018-07-01T20:10:42.995Z,31.60
2018-07-01T20:13:10.660Z,31.80
2018-07-01T20:15:37.872Z,31.50
2018-07-01T20:18:06.066Z,31.50
2018-07-01T20:20:32.956Z,31.30
2018-07-01T20:22:59.885Z,31.60
2018-07-01T20:25:26.803Z,31.40
2018-07-01T20:27:53.715Z,31.30
2018-07-01T20:30:20.601Z,31.20
2018-07-01T20:32:47.525Z,31.10
2018-07-01T20:35:14.424Z,31.20
2018-07-01T20:37:41.361Z,31.20
2018-07-01T20:40:08.295Z,31.90
2018-07-01T20:42:35.268Z,31.10
2018-07-01T20:45:02.184Z,31.00
2018-07-01T20:47:29.128Z,31.10
2018-07-01T20:49:56.012Z,31.10
2018-07-01T20:52:22.927Z,31.00
2018-07-01T20:54:49.820Z,31.00
2018-07-01T20:57:16.755Z,31.10
2018-07-01T21:02:10.555Z,31.40
2018-07-01T21:04:37.504Z,31.30
2018-07-01T21:07:04.488Z,31.20
2018-07-01T21:09:31.393Z,31.20
2018-07-01T21:11:58.289Z,31.60
2018-07-01T21:14:25.254Z,31.30
2018-07-01T21:16:52.180Z,31.40
2018-07-01T21:19:19.175Z,31.80
2018-07-01T21:21:46.123Z,32.70
2018-07-01T21:24:13.892Z,32.30
2018-07-01T21:26:40.844Z,32.90
2018-07-01T21:29:07.819Z,33.20
2018-07-01T21:31:35.378Z,33.50
2018-07-01T21:34:02.380Z,33.40
2018-07-01T21:36:29.350Z,33.60
2018-07-01T21:38:56.280Z,33.80
2018-07-01T21:41:23.646Z,34.20
2018-07-01T21:43:50.582Z,34.40
2018-07-01T21:46:17.624Z,34.80
2018-07-01T21:48:44.562Z,35.10
2018-07-01T21:51:11.924Z,35.80
2018-07-01T21:53:38.878Z,35.40
2018-07-01T21:56:06.008Z,35.40
2018-07-01T21:58:33.047Z,35.60
2018-07-01T22:01:02.548Z,35.80
2018-07-01T22:03:29.959Z,35.80
2018-07-01T22:05:56.912Z,35.90
2018-07-01T22:08:23.840Z,36.10
2018-07-01T22:13:00.804Z,36.00
2018-07-01T22:15:33.476Z,36.10
2018-07-01T22:18:00.580Z,36.30
2018-07-01T22:20:27.492Z,36.30
2018-07-01T22:22:54.449Z,36.50
2018-07-01T22:25:21.380Z,36.70
2018-07-01T22:27:48.913Z,36.70
2018-07-01T22:30:15.899Z,36.90
2018-07-01T22:32:42.855Z,37.40
2018-07-01T22:35:10.185Z,36.70
2018-07-01T22:37:37.122Z,36.80
2018-07-01T22:40:04.299Z,37.00
2018-07-01T22:42:31.301Z,37.20
2018-07-01T22:44:58.276Z,37.20
2018-07-01T22:47:25.304Z,37.10
2018-07-01T22:49:52.206Z,37.20
2018-07-01T22:52:19.636Z,37.50
2018-07-01T22:54:46.548Z,37.50
2018-07-01T22:57:13.507Z,37.40
2018-07-01T22:59:40.760Z,37.60
2018-07-01T23:03:11.667Z,37.70
2018-07-01T23:05:38.619Z,37.60
2018-07-01T23:08:05.612Z,37.70
2018-07-01T23:10:32.674Z,37.80
2018-07-01T23:13:00.255Z,38.00
2018-07-01T23:15:27.163Z,37.90
2018-07-01T23:17:54.893Z,37.90
2018-07-01T23:20:21.818Z,38.00
2018-07-01T23:22:48.890Z,38.10
2018-07-01T23:25:15.803Z,38.20
2018-07-01T23:27:43.871Z,38.40
2018-07-01T23:30:10.859Z,38.40
2018-07-01T23:32:37.823Z,38.40
2018-07-01T23:37:31.680Z,38.50
2018-07-01T23:39:58.780Z,38.60
2018-07-01T23:42:25.748Z,38.60
2018-07-01T23:44:52.983Z,38.70
2018-07-01T23:47:20.751Z,38.80
2018-07-01T23:49:47.703Z,38.90
2018-07-01T23:52:14.629Z,38.70
2018-07-01T23:54:42.124Z,38.80
2018-07-01T23:57:09.076Z,39.00
2018-07-01T23:59:35.988Z,39.00
